sensor_id;sensor_type;location;lat;lon;timestamp;P1;durP1;ratioP1;P2;durP2;ratioP2
32250;SDS011;41295;48.518;9.206;2023-02-18T00:01:13;3.05;;;1.83;;
32250;SDS011;41295;48.518;9.206;2023-02-18T00:03:18;2.42;;;1.70;;
32250;SDS011;41295;48.518;9.206;2023-02-18T00:05:21;3.00;;;1.88;;
32250;SDS011;41295;48.518;9.206;2023-02-18T00:07:23;2.20;;;1.65;;
32250;SDS011;41295;48.518;9.206;2023-02-18T00:09:26;3.95;;;2.10;;
32250;SDS011;41295;48.518;9.206;2023-02-18T00:11:29;2.83;;;1.92;;
32250;SDS011;41295;48.518;9.206;2023-02-18T00:13:34;2.67;;;1.65;;
32250;SDS011;41295;48.518;9.206;2023-02-18T00:15:38;2.13;;;1.70;;
32250;SDS011;41295;48.518;9.206;2023-02-18T00:17:40;2.38;;;1.60;;
32250;SDS011;41295;48.518;9.206;2023-02-18T00:19:43;2.15;;;1.75;;
32250;SDS011;41295;48.518;9.206;2023-02-18T00:21:46;2.42;;;1.60;;
32250;SDS011;41295;48.518;9.206;2023-02-18T00:23:48;2.60;;;1.63;;
32250;SDS011;41295;48.518;9.206;2023-02-18T00:25:57;3.28;;;1.70;;
32250;SDS011;41295;48.518;9.206;2023-02-18T00:28:00;2.30;;;1.70;;
32250;SDS011;41295;48.518;9.206;2023-02-18T00:30:05;3.65;;;1.90;;
32250;SDS011;41295;48.518;9.206;2023-02-18T00:32:09;2.50;;;1.88;;
32250;SDS011;41295;48.518;9.206;2023-02-18T00:34:12;3.00;;;2.03;;
32250;SDS011;41295;48.518;9.206;2023-02-18T00:36:16;2.80;;;1.50;;
32250;SDS011;41295;48.518;9.206;2023-02-18T00:38:20;2.40;;;1.70;;
32250;SDS011;41295;48.518;9.206;2023-02-18T00:40:22;2.75;;;1.67;;
32250;SDS011;41295;48.518;9.206;2023-02-18T00:42:25;2.47;;;1.42;;
32250;SDS011;41295;48.518;9.206;2023-02-18T00:44:28;2.60;;;1.63;;
32250;SDS011;41295;48.518;9.206;2023-02-18T00:46:32;1.92;;;1.65;;
32250;SDS011;41295;48.518;9.206;2023-02-18T00:48:35;2.08;;;1.63;;
32250;SDS011;41295;48.518;9.206;2023-02-18T00:50:38;2.13;;;1.60;;
32250;SDS011;41295;48.518;9.206;2023-02-18T00:52:40;1.60;;;1.50;;
32250;SDS011;41295;48.518;9.206;2023-02-18T00:54:43;2.03;;;1.60;;
32250;SDS011;41295;48.518;9.206;2023-02-18T00:56:45;2.75;;;1.60;;
32250;SDS011;41295;48.518;9.206;2023-02-18T00:58:48;1.60;;;1.50;;
32250;SDS011;41295;48.518;9.206;2023-02-18T01:00:52;3.08;;;1.55;;
32250;SDS011;41295;48.518;9.206;2023-02-18T01:02:56;1.98;;;1.63;;
32250;SDS011;41295;48.518;9.206;2023-02-18T01:04:59;1.80;;;1.45;;
32250;SDS011;41295;48.518;9.206;2023-02-18T01:07:02;1.60;;;1.40;;
32250;SDS011;41295;48.518;9.206;2023-02-18T01:09:04;1.60;;;1.50;;
32250;SDS011;41295;48.518;9.206;2023-02-18T01:11:08;2.05;;;1.45;;
32250;SDS011;41295;48.518;9.206;2023-02-18T01:13:13;1.77;;;1.30;;
32250;SDS011;41295;48.518;9.206;2023-02-18T01:15:17;1.60;;;1.50;;
32250;SDS011;41295;48.518;9.206;2023-02-18T01:17:22;2.30;;;1.50;;
32250;SDS011;41295;48.518;9.206;2023-02-18T01:19:26;2.58;;;1.63;;
32250;SDS011;41295;48.518;9.206;2023-02-18T01:21:29;1.83;;;1.60;;
32250;SDS011;41295;48.518;9.206;2023-02-18T01:23:32;2.75;;;1.70;;
32250;SDS011;41295;48.518;9.206;2023-02-18T01:25:34;2.92;;;1.40;;
32250;SDS011;41295;48.518;9.206;2023-02-18T01:27:38;1.80;;;1.65;;
32250;SDS011;41295;48.518;9.206;2023-02-18T01:29:40;3.00;;;1.70;;
32250;SDS011;41295;48.518;9.206;2023-02-18T01:31:43;1.55;;;1.33;;
32250;SDS011;41295;48.518;9.206;2023-02-18T01:33:45;1.95;;;1.75;;
32250;SDS011;41295;48.518;9.206;2023-02-18T01:35:51;4.88;;;1.55;;
32250;SDS011;41295;48.518;9.206;2023-02-18T01:37:54;2.88;;;1.65;;
32250;SDS011;41295;48.518;9.206;2023-02-18T01:39:56;2.50;;;1.30;;
32250;SDS011;41295;48.518;9.206;2023-02-18T01:41:59;3.60;;;1.67;;
32250;SDS011;41295;48.518;9.206;2023-02-18T01:44:15;1.38;;;1.27;;
32250;SDS011;41295;48.518;9.206;2023-02-18T01:46:19;1.92;;;1.33;;
32250;SDS011;41295;48.518;9.206;2023-02-18T01:48:24;1.90;;;1.30;;
32250;SDS011;41295;48.518;9.206;2023-02-18T01:50:30;2.35;;;1.15;;
32250;SDS011;41295;48.518;9.206;2023-02-18T01:52:36;1.42;;;1.33;;
32250;SDS011;41295;48.518;9.206;2023-02-18T01:54:40;1.38;;;1.27;;
32250;SDS011;41295;48.518;9.206;2023-02-18T01:56:46;1.58;;;1.38;;
32250;SDS011;41295;48.518;9.206;2023-02-18T01:58:53;1.60;;;1.40;;
32250;SDS011;41295;48.518;9.206;2023-02-18T02:00:58;1.98;;;1.27;;
32250;SDS011;41295;48.518;9.206;2023-02-18T02:03:00;2.80;;;1.20;;
32250;SDS011;41295;48.518;9.206;2023-02-18T02:05:03;1.40;;;1.05;;
32250;SDS011;41295;48.518;9.206;2023-02-18T02:07:06;1.23;;;1.13;;
32250;SDS011;41295;48.518;9.206;2023-02-18T02:09:12;1.65;;;1.30;;
32250;SDS011;41295;48.518;9.206;2023-02-18T02:11:21;1.67;;;1.30;;
32250;SDS011;41295;48.518;9.206;2023-02-18T02:13:38;1.95;;;1.23;;
32250;SDS011;41295;48.518;9.206;2023-02-18T02:15:49;1.77;;;1.25;;
32250;SDS011;41295;48.518;9.206;2023-02-18T02:18:10;1.20;;;1.10;;
32250;SDS011;41295;48.518;9.206;2023-02-18T02:25:51;1.02;;;1.00;;
32250;SDS011;41295;48.518;9.206;2023-02-18T02:30:57;3.40;;;1.30;;
32250;SDS011;41295;48.518;9.206;2023-02-18T02:33:23;2.22;;;1.20;;
32250;SDS011;41295;48.518;9.206;2023-02-18T02:35:39;2.78;;;1.35;;
32250;SDS011;41295;48.518;9.206;2023-02-18T02:37:48;2.45;;;1.70;;
32250;SDS011;41295;48.518;9.206;2023-02-18T02:40:03;1.63;;;1.50;;
32250;SDS011;41295;48.518;9.206;2023-02-18T02:42:17;1.58;;;1.48;;
32250;SDS011;41295;48.518;9.206;2023-02-18T02:44:28;2.08;;;1.42;;
32250;SDS011;41295;48.518;9.206;2023-02-18T02:46:39;1.75;;;1.25;;
32250;SDS011;41295;48.518;9.206;2023-02-18T02:48:47;1.30;;;1.10;;
32250;SDS011;41295;48.518;9.206;2023-02-18T02:50:59;3.10;;;1.40;;
32250;SDS011;41295;48.518;9.206;2023-02-18T02:55:15;1.50;;;1.10;;
32250;SDS011;41295;48.518;9.206;2023-02-18T02:59:47;1.42;;;1.17;;
32250;SDS011;41295;48.518;9.206;2023-02-18T03:01:57;2.47;;;1.05;;
32250;SDS011;41295;48.518;9.206;2023-02-18T03:06:50;2.33;;;1.50;;
32250;SDS011;41295;48.518;9.206;2023-02-18T03:09:08;2.60;;;1.27;;
32250;SDS011;41295;48.518;9.206;2023-02-18T03:11:17;1.67;;;1.40;;
32250;SDS011;41295;48.518;9.206;2023-02-18T03:13:23;2.75;;;1.20;;
32250;SDS011;41295;48.518;9.206;2023-02-18T03:15:31;1.35;;;1.20;;
32250;SDS011;41295;48.518;9.206;2023-02-18T03:17:43;2.58;;;1.30;;
32250;SDS011;41295;48.518;9.206;2023-02-18T03:19:53;3.40;;;1.23;;
32250;SDS011;41295;48.518;9.206;2023-02-18T03:22:02;1.63;;;1.15;;
32250;SDS011;41295;48.518;9.206;2023-02-18T03:24:09;2.17;;;1.02;;
32250;SDS011;41295;48.518;9.206;2023-02-18T03:26:17;1.05;;;1.00;;
32250;SDS011;41295;48.518;9.206;2023-02-18T03:28:22;1.05;;;0.95;;
32250;SDS011;41295;48.518;9.206;2023-02-18T03:30:28;1.30;;;1.20;;
32250;SDS011;41295;48.518;9.206;2023-02-18T03:32:34;2.08;;;1.20;;
32250;SDS011;41295;48.518;9.206;2023-02-18T03:34:37;3.00;;;1.02;;
32250;SDS011;41295;48.518;9.206;2023-02-18T03:36:42;1.10;;;1.00;;
32250;SDS011;41295;48.518;9.206;2023-02-18T03:38:49;2.47;;;1.30;;
32250;SDS011;41295;48.518;9.206;2023-02-18T03:40:57;2.65;;;1.10;;
32250;SDS011;41295;48.518;9.206;2023-02-18T03:43:00;1.42;;;1.20;;
32250;SDS011;41295;48.518;9.206;2023-02-18T03:45:03;1.52;;;1.25;;
32250;SDS011;41295;48.518;9.206;2023-02-18T03:47:06;1.15;;;1.00;;
32250;SDS011;41295;48.518;9.206;2023-02-18T03:49:09;1.20;;;1.10;;
32250;SDS011;41295;48.518;9.206;2023-02-18T03:51:12;1.27;;;1.02;;
32250;SDS011;41295;48.518;9.206;2023-02-18T03:53:14;1.73;;;1.35;;
32250;SDS011;41295;48.518;9.206;2023-02-18T03:55:18;1.77;;;1.27;;
32250;SDS011;41295;48.518;9.206;2023-02-18T03:57:21;1.23;;;0.98;;
32250;SDS011;41295;48.518;9.206;2023-02-18T03:59:23;1.73;;;0.93;;
32250;SDS011;41295;48.518;9.206;2023-02-18T04:01:26;0.80;;;0.80;;
32250;SDS011;41295;48.518;9.206;2023-02-18T04:03:29;4.00;;;0.88;;
32250;SDS011;41295;48.518;9.206;2023-02-18T04:05:32;1.50;;;1.00;;
32250;SDS011;41295;48.518;9.206;2023-02-18T04:07:34;1.50;;;0.88;;
32250;SDS011;41295;48.518;9.206;2023-02-18T04:09:37;1.00;;;0.90;;
32250;SDS011;41295;48.518;9.206;2023-02-18T04:11:41;2.22;;;0.98;;
32250;SDS011;41295;48.518;9.206;2023-02-18T04:13:44;1.73;;;1.00;;
32250;SDS011;41295;48.518;9.206;2023-02-18T04:15:47;0.90;;;0.90;;
32250;SDS011;41295;48.518;9.206;2023-02-18T04:17:51;1.23;;;1.13;;
32250;SDS011;41295;48.518;9.206;2023-02-18T04:19:53;1.00;;;0.90;;
32250;SDS011;41295;48.518;9.206;2023-02-18T04:21:59;1.30;;;0.80;;
32250;SDS011;41295;48.518;9.206;2023-02-18T04:24:03;2.50;;;0.95;;
32250;SDS011;41295;48.518;9.206;2023-02-18T04:26:06;1.30;;;1.00;;
32250;SDS011;41295;48.518;9.206;2023-02-18T04:28:11;1.17;;;1.08;;
32250;SDS011;41295;48.518;9.206;2023-02-18T04:30:15;1.20;;;1.10;;
32250;SDS011;41295;48.518;9.206;2023-02-18T04:32:19;1.65;;;1.13;;
32250;SDS011;41295;48.518;9.206;2023-02-18T04:34:21;1.67;;;1.10;;
32250;SDS011;41295;48.518;9.206;2023-02-18T04:36:25;1.02;;;0.93;;
32250;SDS011;41295;48.518;9.206;2023-02-18T04:38:28;1.05;;;1.00;;
32250;SDS011;41295;48.518;9.206;2023-02-18T04:40:30;1.48;;;1.05;;
32250;SDS011;41295;48.518;9.206;2023-02-18T04:42:33;1.10;;;1.00;;
32250;SDS011;41295;48.518;9.206;2023-02-18T04:44:37;1.10;;;1.00;;
32250;SDS011;41295;48.518;9.206;2023-02-18T04:46:40;1.52;;;1.20;;
32250;SDS011;41295;48.518;9.206;2023-02-18T04:48:42;1.52;;;1.35;;
32250;SDS011;41295;48.518;9.206;2023-02-18T04:50:45;1.20;;;1.10;;
32250;SDS011;41295;48.518;9.206;2023-02-18T04:52:48;2.38;;;1.50;;
32250;SDS011;41295;48.518;9.206;2023-02-18T04:54:50;1.70;;;1.30;;
32250;SDS011;41295;48.518;9.206;2023-02-18T04:56:53;1.35;;;1.10;;
32250;SDS011;41295;48.518;9.206;2023-02-18T04:58:55;1.48;;;1.05;;
32250;SDS011;41295;48.518;9.206;2023-02-18T05:01:00;1.42;;;1.25;;
32250;SDS011;41295;48.518;9.206;2023-02-18T05:03:03;1.33;;;1.05;;
32250;SDS011;41295;48.518;9.206;2023-02-18T05:05:06;1.45;;;1.20;;
32250;SDS011;41295;48.518;9.206;2023-02-18T05:07:09;1.40;;;1.02;;
32250;SDS011;41295;48.518;9.206;2023-02-18T05:09:12;1.60;;;1.30;;
32250;SDS011;41295;48.518;9.206;2023-02-18T05:11:15;1.70;;;1.20;;
32250;SDS011;41295;48.518;9.206;2023-02-18T05:13:17;1.92;;;1.20;;
32250;SDS011;41295;48.518;9.206;2023-02-18T05:15:20;1.33;;;1.23;;
32250;SDS011;41295;48.518;9.206;2023-02-18T05:17:24;1.13;;;1.00;;
32250;SDS011;41295;48.518;9.206;2023-02-18T05:19:27;1.52;;;0.90;;
32250;SDS011;41295;48.518;9.206;2023-02-18T05:21:29;1.25;;;1.08;;
32250;SDS011;41295;48.518;9.206;2023-02-18T05:23:32;1.52;;;1.00;;
32250;SDS011;41295;48.518;9.206;2023-02-18T05:25:35;1.10;;;0.95;;
32250;SDS011;41295;48.518;9.206;2023-02-18T05:27:37;1.10;;;1.00;;
32250;SDS011;41295;48.518;9.206;2023-02-18T05:29:40;0.90;;;0.90;;
32250;SDS011;41295;48.518;9.206;2023-02-18T05:31:43;1.88;;;1.02;;
32250;SDS011;41295;48.518;9.206;2023-02-18T05:33:47;1.05;;;0.90;;
32250;SDS011;41295;48.518;9.206;2023-02-18T05:35:49;1.70;;;1.35;;
32250;SDS011;41295;48.518;9.206;2023-02-18T05:37:52;1.02;;;0.82;;
32250;SDS011;41295;48.518;9.206;2023-02-18T05:39:54;1.40;;;0.90;;
32250;SDS011;41295;48.518;9.206;2023-02-18T05:41:57;0.85;;;0.85;;
32250;SDS011;41295;48.518;9.206;2023-02-18T05:44:00;0.88;;;0.88;;
32250;SDS011;41295;48.518;9.206;2023-02-18T05:46:20;1.38;;;1.05;;
32250;SDS011;41295;48.518;9.206;2023-02-18T05:48:22;1.00;;;0.82;;
32250;SDS011;41295;48.518;9.206;2023-02-18T05:50:26;1.73;;;0.93;;
32250;SDS011;41295;48.518;9.206;2023-02-18T05:52:29;1.63;;;0.93;;
32250;SDS011;41295;48.518;9.206;2023-02-18T05:54:32;1.10;;;0.90;;
32250;SDS011;41295;48.518;9.206;2023-02-18T05:56:34;2.22;;;0.90;;
32250;SDS011;41295;48.518;9.206;2023-02-18T05:58:37;1.48;;;1.00;;
32250;SDS011;41295;48.518;9.206;2023-02-18T06:00:40;1.02;;;0.80;;
32250;SDS011;41295;48.518;9.206;2023-02-18T06:02:42;1.77;;;1.08;;
32250;SDS011;41295;48.518;9.206;2023-02-18T06:04:45;1.00;;;0.88;;
32250;SDS011;41295;48.518;9.206;2023-02-18T06:06:49;0.95;;;0.82;;
32250;SDS011;41295;48.518;9.206;2023-02-18T06:08:51;1.45;;;0.80;;
32250;SDS011;41295;48.518;9.206;2023-02-18T06:10:54;3.55;;;1.00;;
32250;SDS011;41295;48.518;9.206;2023-02-18T06:12:57;1.23;;;0.90;;
32250;SDS011;41295;48.518;9.206;2023-02-18T06:15:00;1.40;;;0.88;;
32250;SDS011;41295;48.518;9.206;2023-02-18T06:17:03;1.25;;;0.90;;
32250;SDS011;41295;48.518;9.206;2023-02-18T06:19:06;1.73;;;1.08;;
32250;SDS011;41295;48.518;9.206;2023-02-18T06:21:09;1.00;;;0.80;;
32250;SDS011;41295;48.518;9.206;2023-02-18T06:23:13;2.13;;;0.70;;
32250;SDS011;41295;48.518;9.206;2023-02-18T06:25:16;2.65;;;0.98;;
32250;SDS011;41295;48.518;9.206;2023-02-18T06:27:18;2.15;;;1.17;;
32250;SDS011;41295;48.518;9.206;2023-02-18T06:29:21;0.93;;;0.90;;
32250;SDS011;41295;48.518;9.206;2023-02-18T06:31:23;1.30;;;1.20;;
32250;SDS011;41295;48.518;9.206;2023-02-18T06:33:26;1.25;;;0.98;;
32250;SDS011;41295;48.518;9.206;2023-02-18T06:35:29;1.33;;;1.05;;
32250;SDS011;41295;48.518;9.206;2023-02-18T06:37:31;1.40;;;1.17;;
32250;SDS011;41295;48.518;9.206;2023-02-18T06:39:35;0.80;;;0.80;;
32250;SDS011;41295;48.518;9.206;2023-02-18T06:41:39;1.92;;;1.00;;
32250;SDS011;41295;48.518;9.206;2023-02-18T06:43:42;1.23;;;1.13;;
32250;SDS011;41295;48.518;9.206;2023-02-18T06:45:45;2.38;;;1.17;;
32250;SDS011;41295;48.518;9.206;2023-02-18T06:47:48;1.83;;;1.00;;
32250;SDS011;41295;48.518;9.206;2023-02-18T06:49:50;0.77;;;0.77;;
32250;SDS011;41295;48.518;9.206;2023-02-18T06:51:55;4.03;;;1.40;;
32250;SDS011;41295;48.518;9.206;2023-02-18T06:53:58;1.70;;;1.20;;
32250;SDS011;41295;48.518;9.206;2023-02-18T06:56:01;1.63;;;1.33;;
32250;SDS011;41295;48.518;9.206;2023-02-18T06:58:04;3.33;;;1.40;;
32250;SDS011;41295;48.518;9.206;2023-02-18T07:00:07;1.77;;;1.48;;
32250;SDS011;41295;48.518;9.206;2023-02-18T07:02:13;2.13;;;1.67;;
32250;SDS011;41295;48.518;9.206;2023-02-18T07:04:16;2.00;;;1.48;;
32250;SDS011;41295;48.518;9.206;2023-02-18T07:06:18;4.13;;;1.90;;
32250;SDS011;41295;48.518;9.206;2023-02-18T07:08:21;3.20;;;1.80;;
32250;SDS011;41295;48.518;9.206;2023-02-18T07:10:23;2.40;;;1.80;;
32250;SDS011;41295;48.518;9.206;2023-02-18T07:12:27;2.47;;;1.80;;
32250;SDS011;41295;48.518;9.206;2023-02-18T07:14:30;3.17;;;1.70;;
32250;SDS011;41295;48.518;9.206;2023-02-18T07:16:33;1.83;;;1.50;;
32250;SDS011;41295;48.518;9.206;2023-02-18T07:18:35;2.08;;;1.70;;
32250;SDS011;41295;48.518;9.206;2023-02-18T07:20:38;1.85;;;1.52;;
32250;SDS011;41295;48.518;9.206;2023-02-18T07:22:40;2.20;;;1.35;;
32250;SDS011;41295;48.518;9.206;2023-02-18T07:24:43;1.90;;;1.60;;
32250;SDS011;41295;48.518;9.206;2023-02-18T07:26:46;2.17;;;1.60;;
32250;SDS011;41295;48.518;9.206;2023-02-18T07:28:49;2.25;;;1.58;;
32250;SDS011;41295;48.518;9.206;2023-02-18T07:30:52;3.13;;;1.95;;
32250;SDS011;41295;48.518;9.206;2023-02-18T07:32:55;1.65;;;1.35;;
32250;SDS011;41295;48.518;9.206;2023-02-18T07:34:57;3.75;;;1.60;;
32250;SDS011;41295;48.518;9.206;2023-02-18T07:37:00;3.13;;;1.55;;
32250;SDS011;41295;48.518;9.206;2023-02-18T07:39:03;2.35;;;1.50;;
32250;SDS011;41295;48.518;9.206;2023-02-18T07:41:05;3.65;;;1.60;;
32250;SDS011;41295;48.518;9.206;2023-02-18T07:43:08;1.63;;;1.40;;
32250;SDS011;41295;48.518;9.206;2023-02-18T07:45:12;1.88;;;1.10;;
32250;SDS011;41295;48.518;9.206;2023-02-18T07:47:15;1.33;;;1.10;;
32250;SDS011;41295;48.518;9.206;2023-02-18T07:49:19;3.20;;;1.20;;
32250;SDS011;41295;48.518;9.206;2023-02-18T07:51:22;1.70;;;1.20;;
32250;SDS011;41295;48.518;9.206;2023-02-18T07:53:25;1.38;;;1.20;;
32250;SDS011;41295;48.518;9.206;2023-02-18T07:55:27;1.30;;;1.20;;
32250;SDS011;41295;48.518;9.206;2023-02-18T07:57:49;1.52;;;1.40;;
32250;SDS011;41295;48.518;9.206;2023-02-18T08:00:02;1.90;;;1.70;;
32250;SDS011;41295;48.518;9.206;2023-02-18T08:02:08;2.40;;;1.77;;
32250;SDS011;41295;48.518;9.206;2023-02-18T08:04:19;3.47;;;1.45;;
32250;SDS011;41295;48.518;9.206;2023-02-18T08:06:24;2.05;;;1.75;;
32250;SDS011;41295;48.518;9.206;2023-02-18T08:08:29;4.70;;;1.73;;
32250;SDS011;41295;48.518;9.206;2023-02-18T08:10:35;1.92;;;1.58;;
32250;SDS011;41295;48.518;9.206;2023-02-18T08:12:38;3.42;;;1.80;;
32250;SDS011;41295;48.518;9.206;2023-02-18T08:14:41;2.35;;;1.45;;
32250;SDS011;41295;48.518;9.206;2023-02-18T08:16:43;4.00;;;1.83;;
32250;SDS011;41295;48.518;9.206;2023-02-18T08:18:47;1.60;;;1.40;;
32250;SDS011;41295;48.518;9.206;2023-02-18T08:20:51;2.20;;;1.63;;
32250;SDS011;41295;48.518;9.206;2023-02-18T08:22:54;1.92;;;1.65;;
32250;SDS011;41295;48.518;9.206;2023-02-18T08:24:56;2.22;;;1.58;;
32250;SDS011;41295;48.518;9.206;2023-02-18T08:26:59;1.65;;;1.52;;
32250;SDS011;41295;48.518;9.206;2023-02-18T08:29:02;1.45;;;1.27;;
32250;SDS011;41295;48.518;9.206;2023-02-18T08:31:04;1.70;;;1.40;;
32250;SDS011;41295;48.518;9.206;2023-02-18T08:33:07;2.08;;;1.63;;
32250;SDS011;41295;48.518;9.206;2023-02-18T08:35:12;1.65;;;1.30;;
32250;SDS011;41295;48.518;9.206;2023-02-18T08:37:15;1.73;;;1.55;;
32250;SDS011;41295;48.518;9.206;2023-02-18T08:39:17;2.10;;;1.58;;
32250;SDS011;41295;48.518;9.206;2023-02-18T08:41:20;3.95;;;1.63;;
32250;SDS011;41295;48.518;9.206;2023-02-18T08:43:22;1.85;;;1.42;;
32250;SDS011;41295;48.518;9.206;2023-02-18T08:45:25;2.85;;;1.70;;
32250;SDS011;41295;48.518;9.206;2023-02-18T08:47:28;2.95;;;1.90;;
32250;SDS011;41295;48.518;9.206;2023-02-18T08:49:51;2.83;;;1.70;;
32250;SDS011;41295;48.518;9.206;2023-02-18T08:51:55;2.28;;;1.70;;
32250;SDS011;41295;48.518;9.206;2023-02-18T08:53:57;4.72;;;1.50;;
32250;SDS011;41295;48.518;9.206;2023-02-18T08:56:00;2.42;;;1.30;;
32250;SDS011;41295;48.518;9.206;2023-02-18T08:58:07;2.63;;;1.80;;
32250;SDS011;41295;48.518;9.206;2023-02-18T09:00:10;2.40;;;1.60;;
32250;SDS011;41295;48.518;9.206;2023-02-18T09:02:15;1.85;;;1.60;;
32250;SDS011;41295;48.518;9.206;2023-02-18T09:04:18;1.92;;;1.40;;
32250;SDS011;41295;48.518;9.206;2023-02-18T09:06:21;3.97;;;1.38;;
32250;SDS011;41295;48.518;9.206;2023-02-18T09:08:25;4.75;;;1.50;;
32250;SDS011;41295;48.518;9.206;2023-02-18T09:10:28;1.50;;;1.15;;
32250;SDS011;41295;48.518;9.206;2023-02-18T09:12:31;1.98;;;1.48;;
32250;SDS011;41295;48.518;9.206;2023-02-18T09:14:33;2.00;;;1.55;;
32250;SDS011;41295;48.518;9.206;2023-02-18T09:16:37;2.53;;;1.38;;
32250;SDS011;41295;48.518;9.206;2023-02-18T09:18:40;3.28;;;1.20;;
32250;SDS011;41295;48.518;9.206;2023-02-18T09:20:42;3.53;;;1.42;;
32250;SDS011;41295;48.518;9.206;2023-02-18T09:22:47;5.13;;;1.80;;
32250;SDS011;41295;48.518;9.206;2023-02-18T09:24:51;1.73;;;1.40;;
32250;SDS011;41295;48.518;9.206;2023-02-18T09:26:54;5.82;;;1.40;;
32250;SDS011;41295;48.518;9.206;2023-02-18T09:28:57;3.45;;;1.40;;
32250;SDS011;41295;48.518;9.206;2023-02-18T09:31:02;1.55;;;1.13;;
32250;SDS011;41295;48.518;9.206;2023-02-18T09:33:06;1.83;;;1.38;;
32250;SDS011;41295;48.518;9.206;2023-02-18T09:35:09;2.17;;;1.50;;
32250;SDS011;41295;48.518;9.206;2023-02-18T09:37:12;3.05;;;1.40;;
32250;SDS011;41295;48.518;9.206;2023-02-18T09:39:15;3.40;;;1.35;;
32250;SDS011;41295;48.518;9.206;2023-02-18T09:41:25;1.45;;;1.30;;
32250;SDS011;41295;48.518;9.206;2023-02-18T09:43:32;1.85;;;1.40;;
32250;SDS011;41295;48.518;9.206;2023-02-18T09:45:37;2.17;;;1.38;;
32250;SDS011;41295;48.518;9.206;2023-02-18T09:47:41;2.63;;;1.58;;
32250;SDS011;41295;48.518;9.206;2023-02-18T09:49:46;3.50;;;1.80;;
32250;SDS011;41295;48.518;9.206;2023-02-18T09:51:53;1.65;;;1.30;;
32250;SDS011;41295;48.518;9.206;2023-02-18T09:53:56;4.45;;;1.48;;
32250;SDS011;41295;48.518;9.206;2023-02-18T09:55:59;3.10;;;1.48;;
32250;SDS011;41295;48.518;9.206;2023-02-18T09:58:05;3.03;;;1.42;;
32250;SDS011;41295;48.518;9.206;2023-02-18T10:00:14;2.63;;;1.63;;
32250;SDS011;41295;48.518;9.206;2023-02-18T10:02:20;3.05;;;1.58;;
32250;SDS011;41295;48.518;9.206;2023-02-18T10:04:26;3.10;;;1.50;;
32250;SDS011;41295;48.518;9.206;2023-02-18T10:06:33;1.50;;;1.00;;
32250;SDS011;41295;48.518;9.206;2023-02-18T10:08:37;5.78;;;1.65;;
32250;SDS011;41295;48.518;9.206;2023-02-18T10:10:44;2.97;;;1.23;;
32250;SDS011;41295;48.518;9.206;2023-02-18T10:12:47;9.15;;;1.65;;
32250;SDS011;41295;48.518;9.206;2023-02-18T10:14:53;3.00;;;1.05;;
32250;SDS011;41295;48.518;9.206;2023-02-18T10:16:57;1.77;;;1.25;;
32250;SDS011;41295;48.518;9.206;2023-02-18T10:19:03;3.33;;;1.40;;
32250;SDS011;41295;48.518;9.206;2023-02-18T10:21:11;4.35;;;1.45;;
32250;SDS011;41295;48.518;9.206;2023-02-18T10:23:16;3.70;;;1.48;;
32250;SDS011;41295;48.518;9.206;2023-02-18T10:25:22;3.55;;;1.35;;
32250;SDS011;41295;48.518;9.206;2023-02-18T10:27:26;1.73;;;1.10;;
32250;SDS011;41295;48.518;9.206;2023-02-18T10:29:30;5.60;;;1.40;;
32250;SDS011;41295;48.518;9.206;2023-02-18T10:31:35;1.30;;;1.08;;
32250;SDS011;41295;48.518;9.206;2023-02-18T10:33:41;6.22;;;1.25;;
32250;SDS011;41295;48.518;9.206;2023-02-18T10:35:49;3.70;;;1.00;;
32250;SDS011;41295;48.518;9.206;2023-02-18T10:37:56;1.73;;;1.40;;
32250;SDS011;41295;48.518;9.206;2023-02-18T10:40:08;1.33;;;1.10;;
32250;SDS011;41295;48.518;9.206;2023-02-18T10:42:18;6.93;;;1.23;;
32250;SDS011;41295;48.518;9.206;2023-02-18T10:44:32;3.53;;;1.48;;
32250;SDS011;41295;48.518;9.206;2023-02-18T10:46:48;3.67;;;1.25;;
32250;SDS011;41295;48.518;9.206;2023-02-18T10:49:03;2.50;;;1.90;;
32250;SDS011;41295;48.518;9.206;2023-02-18T10:51:27;2.15;;;1.38;;
32250;SDS011;41295;48.518;9.206;2023-02-18T10:53:33;1.30;;;1.20;;
32250;SDS011;41295;48.518;9.206;2023-02-18T10:55:39;1.10;;;1.00;;
32250;SDS011;41295;48.518;9.206;2023-02-18T10:57:44;2.10;;;1.33;;
32250;SDS011;41295;48.518;9.206;2023-02-18T10:59:56;1.40;;;1.10;;
32250;SDS011;41295;48.518;9.206;2023-02-18T11:02:04;2.28;;;1.40;;
32250;SDS011;41295;48.518;9.206;2023-02-18T11:04:18;1.40;;;1.10;;
32250;SDS011;41295;48.518;9.206;2023-02-18T11:06:24;2.08;;;1.02;;
32250;SDS011;41295;48.518;9.206;2023-02-18T11:08:37;1.35;;;1.00;;
32250;SDS011;41295;48.518;9.206;2023-02-18T11:10:44;1.85;;;1.23;;
32250;SDS011;41295;48.518;9.206;2023-02-18T11:12:49;1.45;;;1.10;;
32250;SDS011;41295;48.518;9.206;2023-02-18T11:15:02;4.25;;;1.00;;
32250;SDS011;41295;48.518;9.206;2023-02-18T11:17:16;2.17;;;1.25;;
32250;SDS011;41295;48.518;9.206;2023-02-18T11:19:29;2.58;;;1.25;;
32250;SDS011;41295;48.518;9.206;2023-02-18T11:21:34;1.58;;;1.20;;
32250;SDS011;41295;48.518;9.206;2023-02-18T11:23:44;2.42;;;1.20;;
32250;SDS011;41295;48.518;9.206;2023-02-18T11:25:53;3.03;;;1.42;;
32250;SDS011;41295;48.518;9.206;2023-02-18T11:27:59;2.70;;;1.05;;
32250;SDS011;41295;48.518;9.206;2023-02-18T11:30:06;1.63;;;1.20;;
32250;SDS011;41295;48.518;9.206;2023-02-18T11:32:22;3.63;;;1.42;;
32250;SDS011;41295;48.518;9.206;2023-02-18T11:34:28;2.90;;;1.20;;
32250;SDS011;41295;48.518;9.206;2023-02-18T11:36:34;3.85;;;1.30;;
32250;SDS011;41295;48.518;9.206;2023-02-18T11:38:40;1.88;;;1.10;;
32250;SDS011;41295;48.518;9.206;2023-02-18T11:40:51;6.53;;;1.20;;
32250;SDS011;41295;48.518;9.206;2023-02-18T11:43:01;1.48;;;1.20;;
32250;SDS011;41295;48.518;9.206;2023-02-18T11:45:23;1.92;;;1.40;;
32250;SDS011;41295;48.518;9.206;2023-02-18T11:47:32;1.20;;;1.00;;
32250;SDS011;41295;48.518;9.206;2023-02-18T11:49:36;1.60;;;1.15;;
32250;SDS011;41295;48.518;9.206;2023-02-18T11:51:38;8.20;;;1.40;;
32250;SDS011;41295;48.518;9.206;2023-02-18T11:53:52;5.30;;;1.10;;
32250;SDS011;41295;48.518;9.206;2023-02-18T11:56:00;1.65;;;1.20;;
32250;SDS011;41295;48.518;9.206;2023-02-18T11:58:05;2.67;;;1.27;;
32250;SDS011;41295;48.518;9.206;2023-02-18T12:00:14;4.22;;;1.30;;
32250;SDS011;41295;48.518;9.206;2023-02-18T12:02:25;4.30;;;1.20;;
32250;SDS011;41295;48.518;9.206;2023-02-18T12:04:35;6.93;;;1.35;;
32250;SDS011;41295;48.518;9.206;2023-02-18T12:06:45;1.88;;;1.23;;
32250;SDS011;41295;48.518;9.206;2023-02-18T12:08:55;2.05;;;1.30;;
32250;SDS011;41295;48.518;9.206;2023-02-18T12:11:03;8.63;;;4.70;;
32250;SDS011;41295;48.518;9.206;2023-02-18T12:13:11;15.88;;;8.43;;
32250;SDS011;41295;48.518;9.206;2023-02-18T12:15:26;23.10;;;10.73;;
32250;SDS011;41295;48.518;9.206;2023-02-18T12:17:42;14.57;;;5.00;;
32250;SDS011;41295;48.518;9.206;2023-02-18T12:22:51;4.18;;;1.90;;
32250;SDS011;41295;48.518;9.206;2023-02-18T12:25:03;2.88;;;1.65;;
32250;SDS011;41295;48.518;9.206;2023-02-18T12:27:23;2.35;;;1.30;;
32250;SDS011;41295;48.518;9.206;2023-02-18T12:29:34;1.70;;;1.30;;
32250;SDS011;41295;48.518;9.206;2023-02-18T12:31:55;2.85;;;1.60;;
32250;SDS011;41295;48.518;9.206;2023-02-18T12:34:11;3.42;;;1.50;;
32250;SDS011;41295;48.518;9.206;2023-02-18T12:38:51;3.78;;;1.80;;
32250;SDS011;41295;48.518;9.206;2023-02-18T12:40:59;5.43;;;2.40;;
32250;SDS011;41295;48.518;9.206;2023-02-18T12:43:17;3.25;;;1.42;;
32250;SDS011;41295;48.518;9.206;2023-02-18T12:45:38;4.55;;;1.63;;
32250;SDS011;41295;48.518;9.206;2023-02-18T12:48:01;3.65;;;1.75;;
32250;SDS011;41295;48.518;9.206;2023-02-18T12:50:26;1.77;;;1.40;;
32250;SDS011;41295;48.518;9.206;2023-02-18T12:52:39;4.13;;;1.73;;
32250;SDS011;41295;48.518;9.206;2023-02-18T12:54:57;3.05;;;1.88;;
32250;SDS011;41295;48.518;9.206;2023-02-18T12:57:21;2.13;;;1.20;;
32250;SDS011;41295;48.518;9.206;2023-02-18T12:59:41;1.73;;;1.45;;